createdAt,value
2023-06-04T00:02:26.609Z,16.30
2023-06-04T00:16:01.001Z,15.51
2023-06-04T00:18:28.170Z,15.42
2023-06-04T00:20:55.521Z,15.38
2023-06-04T00:23:22.733Z,16.01
2023-06-04T00:25:50.486Z,15.57
2023-06-04T00:28:17.549Z,15.96
2023-06-04T00:30:44.879Z,15.87
2023-06-04T00:33:13.494Z,15.40
2023-06-04T00:35:40.698Z,15.90
2023-06-04T00:38:07.828Z,15.97
2023-06-04T00:40:35.215Z,15.56
2023-06-04T00:43:02.404Z,15.91
2023-06-04T00:45:32.339Z,15.46
2023-06-04T00:47:59.741Z,15.58
2023-06-04T00:50:28.588Z,15.57
2023-06-04T00:52:56.286Z,15.63
2023-06-04T00:55:23.633Z,15.61
2023-06-04T00:57:50.655Z,15.48
2023-06-04T01:00:18.960Z,15.76
2023-06-04T01:02:52.255Z,15.30
2023-06-04T01:05:30.995Z,15.62
2023-06-04T01:08:00.787Z,15.22
2023-06-04T01:10:28.076Z,15.59
2023-06-04T01:12:55.239Z,15.80
2023-06-04T01:15:23.130Z,15.61
2023-06-04T01:17:54.328Z,15.39
2023-06-04T01:20:29.734Z,15.26
2023-06-04T01:23:21.098Z,15.88
2023-06-04T01:25:50.835Z,15.59
2023-06-04T01:28:18.604Z,15.46
2023-06-04T01:30:47.240Z,15.44
2023-06-04T01:33:16.216Z,15.86
2023-06-04T01:35:44.137Z,15.42
2023-06-04T01:38:11.533Z,14.99
2023-06-04T01:40:40.355Z,15.51
2023-06-04T01:43:07.375Z,15.95
2023-06-04T01:45:34.975Z,15.97
2023-06-04T01:48:03.518Z,15.95
2023-06-04T01:50:31.925Z,15.51
2023-06-04T01:52:59.262Z,15.94
2023-06-04T01:55:27.292Z,15.52
2023-06-04T01:57:55.712Z,15.95
2023-06-04T02:00:23.610Z,15.40
2023-06-04T02:02:50.747Z,15.18
2023-06-04T02:05:18.677Z,15.37
2023-06-04T02:07:47.090Z,15.78
2023-06-04T02:10:16.436Z,15.30
2023-06-04T02:12:56.505Z,15.75
2023-06-04T02:15:24.612Z,15.26
2023-06-04T02:17:51.881Z,15.26
2023-06-04T02:20:19.298Z,15.34
2023-06-04T02:22:46.501Z,15.17
2023-06-04T02:25:13.916Z,15.07
2023-06-04T02:27:41.341Z,15.46
2023-06-04T02:30:11.312Z,14.94
2023-06-04T02:32:38.376Z,14.83
2023-06-04T02:35:06.696Z,14.78
2023-06-04T02:37:33.757Z,15.01
2023-06-04T02:40:01.161Z,14.79
2023-06-04T02:42:28.510Z,14.86
2023-06-04T02:44:55.754Z,15.23
2023-06-04T02:47:24.074Z,15.12
2023-06-04T02:49:51.526Z,14.60
2023-06-04T02:52:18.594Z,14.85
2023-06-04T02:54:45.981Z,14.60
2023-06-04T02:57:12.997Z,15.00
2023-06-04T02:59:40.332Z,14.24
2023-06-04T03:02:07.568Z,14.97
2023-06-04T03:04:36.749Z,14.49
2023-06-04T03:07:03.687Z,14.91
2023-06-04T03:09:31.907Z,14.41
2023-06-04T03:12:02.633Z,14.89
2023-06-04T03:14:33.584Z,14.95
2023-06-04T03:17:02.303Z,14.62
2023-06-04T03:19:29.660Z,14.94
2023-06-04T03:21:57.925Z,15.02
2023-06-04T03:24:25.312Z,15.00
2023-06-04T03:26:52.617Z,14.48
2023-06-04T03:29:19.872Z,14.54
2023-06-04T03:31:47.047Z,14.95
2023-06-04T03:34:14.633Z,14.91
2023-06-04T03:36:41.660Z,14.50
2023-06-04T03:39:10.412Z,14.49
2023-06-04T03:41:37.612Z,14.47
2023-06-04T03:44:04.859Z,14.99
2023-06-04T03:46:34.667Z,14.96
2023-06-04T03:49:02.605Z,14.86
2023-06-04T03:51:29.726Z,14.46
2023-06-04T03:53:59.351Z,14.35
2023-06-04T03:56:30.852Z,14.35
2023-06-04T03:58:58.166Z,14.54
2023-06-04T04:01:25.436Z,15.02
2023-06-04T04:03:53.693Z,15.10
2023-06-04T04:06:21.286Z,14.75
2023-06-04T04:08:49.696Z,15.51
2023-06-04T04:11:17.363Z,16.23
2023-06-04T04:13:47.618Z,16.25
2023-06-04T04:16:14.940Z,16.48
2023-06-04T04:18:44.587Z,16.43
2023-06-04T04:21:12.448Z,16.05
2023-06-04T04:23:43.368Z,16.35
2023-06-04T04:26:17.593Z,16.60
2023-06-04T04:28:46.379Z,17.05
2023-06-04T04:31:13.596Z,18.19
2023-06-04T04:33:41.040Z,19.12
2023-06-04T04:36:13.506Z,20.30
2023-06-04T04:38:41.388Z,20.89
2023-06-04T04:41:09.595Z,21.33
2023-06-04T04:43:40.796Z,22.47
2023-06-04T04:46:09.342Z,23.55
2023-06-04T04:48:36.848Z,24.12
2023-06-04T04:51:03.997Z,24.40
2023-06-04T04:53:31.442Z,25.37
2023-06-04T04:55:59.125Z,25.92
2023-06-04T04:58:26.571Z,26.31
2023-06-04T05:00:53.513Z,26.75
2023-06-04T05:03:22.498Z,27.56
2023-06-04T05:05:49.600Z,28.17
2023-06-04T05:08:17.028Z,28.70
2023-06-04T05:10:44.210Z,28.71
2023-06-04T05:13:12.281Z,28.75
2023-06-04T05:15:40.964Z,29.74
2023-06-04T05:18:08.868Z,29.78
2023-06-04T05:20:38.897Z,29.65
2023-06-04T05:23:06.552Z,30.76
2023-06-04T05:25:34.090Z,30.96
2023-06-04T05:28:01.522Z,30.42
2023-06-04T05:30:28.673Z,29.11
2023-06-04T05:32:56.102Z,28.07
2023-06-04T05:35:23.267Z,26.85
2023-06-04T05:37:55.475Z,27.11
2023-06-04T05:40:23.133Z,27.38
2023-06-04T05:42:50.831Z,27.12
2023-06-04T05:45:18.102Z,25.91
2023-06-04T05:47:45.473Z,26.39
2023-06-04T05:50:12.499Z,26.69
2023-06-04T05:52:40.221Z,26.59
2023-06-04T05:55:10.041Z,26.22
2023-06-04T05:57:37.575Z,26.69
2023-06-04T06:00:11.806Z,26.12
2023-06-04T06:02:42.110Z,25.95
2023-06-04T06:05:11.522Z,26.24
2023-06-04T06:07:39.116Z,26.49
2023-06-04T06:10:10.075Z,26.45
2023-06-04T06:12:46.168Z,25.90
2023-06-04T06:15:18.824Z,26.53
2023-06-04T06:17:46.742Z,26.12
2023-06-04T06:20:18.953Z,25.88
2023-06-04T06:22:48.196Z,25.73
2023-06-04T06:25:27.552Z,25.98
2023-06-04T06:27:54.940Z,26.26
2023-06-04T06:30:25.346Z,26.01
2023-06-04T06:32:56.492Z,26.07
2023-06-04T06:35:24.148Z,26.13
2023-06-04T06:37:56.354Z,26.55
2023-06-04T06:40:24.883Z,26.31
2023-06-04T06:42:55.339Z,26.08
2023-06-04T06:45:27.547Z,26.66
2023-06-04T06:47:55.215Z,26.47
2023-06-04T06:50:22.361Z,26.18
2023-06-04T06:52:54.694Z,25.27
2023-06-04T06:55:22.013Z,25.73
2023-06-04T06:57:51.013Z,25.59
2023-06-04T07:00:21.074Z,25.49
2023-06-04T07:02:48.478Z,25.83
2023-06-04T07:05:18.147Z,25.38
2023-06-04T07:07:48.997Z,26.00
2023-06-04T07:10:18.159Z,26.13
2023-06-04T07:13:14.251Z,25.59
2023-06-04T07:15:46.147Z,25.54
2023-06-04T07:18:15.474Z,26.18
2023-06-04T07:20:51.236Z,26.18
2023-06-04T07:23:23.462Z,25.99
2023-06-04T07:28:44.496Z,26.28
2023-06-04T07:31:18.244Z,25.62
2023-06-04T07:33:50.659Z,25.97
2023-06-04T07:36:18.028Z,25.89
2023-06-04T07:38:45.501Z,25.48
2023-06-04T07:41:12.721Z,25.21
2023-06-04T07:43:44.403Z,26.01
2023-06-04T07:46:12.180Z,25.61
2023-06-04T07:48:39.604Z,25.56
2023-06-04T07:51:06.889Z,26.07
2023-06-04T07:53:34.674Z,25.60
2023-06-04T07:56:01.690Z,25.79
2023-06-04T07:58:31.605Z,25.58
2023-06-04T08:01:00.111Z,25.61
2023-06-04T08:03:31.444Z,25.09
2023-06-04T08:06:02.286Z,25.53
2023-06-04T08:08:34.301Z,25.64
2023-06-04T08:11:01.302Z,26.25
2023-06-04T08:13:28.768Z,25.88
2023-06-04T08:15:56.010Z,25.84
2023-06-04T08:18:27.420Z,26.37
2023-06-04T08:20:55.633Z,26.13
2023-06-04T08:23:23.009Z,26.56
2023-06-04T08:25:51.778Z,26.50
2023-06-04T08:28:20.493Z,26.58
2023-06-04T08:30:48.016Z,26.56
2023-06-04T08:33:15.646Z,25.35
2023-06-04T08:35:44.270Z,25.43
2023-06-04T08:38:11.600Z,25.33
2023-06-04T08:40:38.896Z,25.29
2023-06-04T08:43:06.800Z,25.70
2023-06-04T08:45:37.931Z,25.60
2023-06-04T08:48:11.076Z,26.08
2023-06-04T08:50:43.425Z,25.96
2023-06-04T08:53:16.572Z,26.33
2023-06-04T08:55:44.142Z,26.66
2023-06-04T08:58:12.383Z,26.16
2023-06-04T09:00:39.468Z,25.83
2023-06-04T09:03:07.409Z,25.86
2023-06-04T09:05:38.963Z,25.85
2023-06-04T09:08:12.404Z,26.39
2023-06-04T09:10:42.200Z,27.07
2023-06-04T09:13:10.969Z,27.02
2023-06-04T09:15:38.054Z,26.90
2023-06-04T09:18:08.279Z,26.57
2023-06-04T09:20:37.394Z,26.54
2023-06-04T09:23:13.999Z,26.40
2023-06-04T09:25:45.011Z,26.44
2023-06-04T09:28:12.449Z,26.36
2023-06-04T09:30:39.644Z,26.43
2023-06-04T09:33:10.521Z,26.96
2023-06-04T09:35:38.015Z,27.09
2023-06-04T09:38:06.381Z,27.34
2023-06-04T09:40:38.267Z,27.12
2023-06-04T09:43:07.341Z,26.71
2023-06-04T09:45:38.567Z,26.98
2023-06-04T09:48:09.342Z,27.16
2023-06-04T09:50:43.166Z,27.28
2023-06-04T09:53:17.523Z,26.67
2023-06-04T09:55:44.666Z,26.56
2023-06-04T09:58:14.450Z,26.80
2023-06-04T10:00:42.834Z,26.18
2023-06-04T10:03:15.142Z,26.69
2023-06-04T10:05:42.656Z,26.63
2023-06-04T10:08:14.250Z,26.62
2023-06-04T10:10:41.575Z,26.71
2023-06-04T10:13:17.918Z,26.94
2023-06-04T10:15:46.023Z,26.60
2023-06-04T10:18:15.413Z,26.34
2023-06-04T10:20:42.857Z,26.95
2023-06-04T10:23:10.452Z,27.26
2023-06-04T10:25:37.627Z,27.18
2023-06-04T10:28:05.448Z,26.50
2023-06-04T10:30:33.921Z,26.37
2023-06-04T10:33:01.865Z,25.92
2023-06-04T10:35:32.792Z,26.34
2023-06-04T10:38:10.844Z,26.01
2023-06-04T10:40:38.190Z,26.12
2023-06-04T10:43:07.262Z,26.12
2023-06-04T10:45:36.384Z,25.67
2023-06-04T10:48:04.478Z,26.16
2023-06-04T10:50:33.028Z,25.99
2023-06-04T10:53:03.881Z,25.48
2023-06-04T10:55:32.095Z,26.06
2023-06-04T10:57:59.761Z,26.26
2023-06-04T11:00:38.178Z,25.76
2023-06-04T11:03:09.357Z,25.93
2023-06-04T11:05:37.889Z,26.43
2023-06-04T11:08:06.809Z,26.16
2023-06-04T11:10:35.875Z,26.42
2023-06-04T11:13:08.329Z,26.57
2023-06-04T11:15:42.621Z,26.73
2023-06-04T11:18:15.402Z,26.91
2023-06-04T11:20:43.684Z,26.20
2023-06-04T11:23:13.514Z,26.52
2023-06-04T11:25:41.844Z,26.56
2023-06-04T11:28:09.414Z,26.43
2023-06-04T11:30:36.727Z,26.46
2023-06-04T11:33:06.801Z,26.52
2023-06-04T11:35:41.522Z,26.69
2023-06-04T11:38:10.452Z,26.23
2023-06-04T11:40:37.829Z,26.45
2023-06-04T11:43:06.346Z,26.99
2023-06-04T11:45:33.192Z,27.59
2023-06-04T11:48:00.718Z,27.79
2023-06-04T11:50:30.208Z,28.16
2023-06-04T11:53:01.325Z,28.33
2023-06-04T11:55:28.636Z,28.00
2023-06-04T11:57:56.204Z,27.71
2023-06-04T12:00:23.468Z,27.12
2023-06-04T12:02:53.992Z,26.75
2023-06-04T12:05:24.143Z,26.81
2023-06-04T12:07:53.175Z,26.40
2023-06-04T12:10:21.103Z,26.38
2023-06-04T12:12:56.580Z,26.66
2023-06-04T12:15:26.507Z,26.55
2023-06-04T12:17:55.595Z,26.81
2023-06-04T12:20:34.652Z,26.61
2023-06-04T12:23:03.829Z,27.10
2023-06-04T12:25:32.266Z,26.84
2023-06-04T12:27:59.828Z,27.03
2023-06-04T12:30:36.726Z,26.82
2023-06-04T12:33:09.331Z,26.44
2023-06-04T12:35:36.679Z,26.36
2023-06-04T12:38:10.638Z,26.31
2023-06-04T12:40:38.038Z,26.85
2023-06-04T12:43:06.903Z,26.72
2023-06-04T12:45:33.981Z,26.89
2023-06-04T12:48:01.544Z,27.20
2023-06-04T12:50:30.065Z,27.24
2023-06-04T12:52:57.828Z,27.37
2023-06-04T12:55:28.236Z,27.27
2023-06-04T12:57:55.953Z,26.99
2023-06-04T13:00:23.463Z,27.33
2023-06-04T13:02:52.137Z,27.31
2023-06-04T13:05:19.336Z,26.38
2023-06-04T13:07:46.807Z,26.33
2023-06-04T13:10:14.090Z,26.76
2023-06-04T13:12:42.870Z,26.51
2023-06-04T13:15:10.128Z,26.39
2023-06-04T13:17:37.729Z,25.56
2023-06-04T13:20:06.340Z,26.28
2023-06-04T13:22:34.066Z,26.02
2023-06-04T13:25:01.377Z,26.38
2023-06-04T13:27:28.895Z,25.97
2023-06-04T13:29:57.465Z,26.59
2023-06-04T13:32:25.032Z,26.17
2023-06-04T13:34:52.360Z,26.23
2023-06-04T13:37:19.651Z,26.38
2023-06-04T13:39:46.594Z,26.85
2023-06-04T13:42:14.035Z,26.23
2023-06-04T13:44:41.080Z,26.33
2023-06-04T13:47:09.906Z,26.18
2023-06-04T13:49:37.023Z,26.61
2023-06-04T13:52:04.609Z,26.19
2023-06-04T13:54:32.718Z,26.11
2023-06-04T13:57:03.332Z,26.54
2023-06-04T13:59:31.381Z,26.11
2023-06-04T14:01:58.696Z,26.54
2023-06-04T14:04:27.257Z,26.09
2023-06-04T14:06:54.569Z,26.20
2023-06-04T14:09:21.928Z,26.42
2023-06-04T14:11:51.553Z,27.02
2023-06-04T14:14:19.222Z,26.75
2023-06-04T14:16:46.987Z,27.04
2023-06-04T14:19:14.742Z,27.07
2023-06-04T14:21:44.733Z,26.25
2023-06-04T14:24:12.253Z,26.30
2023-06-04T14:26:39.723Z,25.61
2023-06-04T14:29:06.772Z,25.51
2023-06-04T14:31:34.182Z,25.23
2023-06-04T14:34:01.532Z,25.60
2023-06-04T14:36:28.913Z,25.21
2023-06-04T14:38:58.137Z,26.27
2023-06-04T14:41:25.483Z,26.45
2023-06-04T14:43:52.593Z,25.90
2023-06-04T14:46:20.028Z,26.14
2023-06-04T14:48:47.254Z,26.33
2023-06-04T14:51:14.811Z,26.42
2023-06-04T14:53:42.120Z,26.22
2023-06-04T14:56:11.149Z,26.00
2023-06-04T14:58:38.330Z,25.93
2023-06-04T15:01:06.214Z,26.42
2023-06-04T15:03:33.938Z,26.46
2023-06-04T15:06:18.301Z,26.15
2023-06-04T15:08:46.203Z,26.39
2023-06-04T15:11:15.694Z,26.97
2023-06-04T15:13:42.687Z,26.85
2023-06-04T15:16:10.053Z,27.04
2023-06-04T15:18:37.208Z,26.57
2023-06-04T15:21:04.789Z,25.99
2023-06-04T15:23:41.851Z,26.01
2023-06-04T15:26:36.673Z,26.23
2023-06-04T15:29:10.797Z,25.94
2023-06-04T15:32:01.005Z,25.77
2023-06-04T15:34:36.809Z,26.23
2023-06-04T15:37:24.181Z,25.76
2023-06-04T15:39:59.392Z,25.98
2023-06-04T15:42:48.167Z,25.82
2023-06-04T15:45:25.413Z,25.52
2023-06-04T15:48:12.207Z,25.85
2023-06-04T15:50:45.931Z,24.90
2023-06-04T15:53:33.188Z,25.05
2023-06-04T15:56:06.692Z,25.45
2023-06-04T15:58:56.197Z,24.89
2023-06-04T16:01:30.145Z,25.42
2023-06-04T16:04:24.141Z,24.98
2023-06-04T16:07:18.186Z,25.04
2023-06-04T16:10:05.192Z,25.37
2023-06-04T16:12:40.317Z,24.88
2023-06-04T16:15:29.196Z,24.78
2023-06-04T16:18:11.335Z,25.22
2023-06-04T16:21:08.268Z,25.22
2023-06-04T16:23:57.972Z,24.54
2023-06-04T16:26:39.253Z,24.85
2023-06-04T16:29:33.258Z,25.00
2023-06-04T16:32:21.163Z,25.01
2023-06-04T16:34:55.315Z,25.14
2023-06-04T16:37:42.260Z,25.08
2023-06-04T16:40:16.376Z,25.72
2023-06-04T16:43:03.230Z,25.01
2023-06-04T16:45:36.302Z,25.59
2023-06-04T16:48:24.217Z,25.53
2023-06-04T16:50:57.276Z,25.30
2023-06-04T16:53:44.197Z,25.74
2023-06-04T16:56:22.187Z,25.61
2023-06-04T16:59:11.230Z,25.72
2023-06-04T17:01:45.391Z,25.18
2023-06-04T17:04:33.234Z,25.08
2023-06-04T17:07:09.925Z,25.33
2023-06-04T17:09:57.148Z,25.02
2023-06-04T17:12:30.229Z,25.26
2023-06-04T17:15:19.151Z,25.32
2023-06-04T17:17:59.283Z,25.25
2023-06-04T17:20:54.131Z,24.86
2023-06-04T17:23:41.373Z,25.20
2023-06-04T17:26:15.739Z,25.19
2023-06-04T17:29:02.223Z,24.68
2023-06-04T17:31:36.303Z,24.55
2023-06-04T17:34:23.139Z,24.93
2023-06-04T17:37:05.146Z,24.82
2023-06-04T17:40:01.763Z,24.94
2023-06-04T17:42:54.357Z,25.34
2023-06-04T17:45:28.385Z,26.03
2023-06-04T17:48:15.158Z,26.35
2023-06-04T17:50:49.331Z,25.98
2023-06-04T17:53:39.152Z,25.86
2023-06-04T17:56:12.452Z,26.12
2023-06-04T17:58:59.153Z,26.21
2023-06-04T18:01:40.177Z,25.77
2023-06-04T18:04:34.168Z,25.72
2023-06-04T18:07:23.190Z,25.97
2023-06-04T18:09:58.245Z,25.54
2023-06-04T18:12:45.180Z,25.00
2023-06-04T18:15:19.415Z,24.16
2023-06-04T18:18:06.248Z,23.81
2023-06-04T18:20:41.970Z,23.98
2023-06-04T18:23:29.205Z,23.27
2023-06-04T18:26:08.411Z,23.56
2023-06-04T18:28:55.176Z,23.44
2023-06-04T18:31:36.273Z,23.29
2023-06-04T18:34:31.180Z,23.15
2023-06-04T18:37:20.996Z,22.46
2023-06-04T18:39:55.083Z,22.53
2023-06-04T18:42:45.282Z,22.46
2023-06-04T18:45:22.268Z,22.71
2023-06-04T18:48:09.305Z,22.60
2023-06-04T18:50:45.473Z,22.23
2023-06-04T18:53:36.404Z,22.10
2023-06-04T18:56:12.501Z,22.21
2023-06-04T18:59:01.203Z,21.81
2023-06-04T19:01:34.366Z,21.78
2023-06-04T19:04:21.206Z,21.73
2023-06-04T19:07:08.188Z,21.60
2023-06-04T19:09:41.749Z,21.60
2023-06-04T19:12:28.153Z,21.89
2023-06-04T19:15:03.228Z,21.40
2023-06-04T19:17:51.224Z,21.33
2023-06-04T19:20:27.960Z,21.15
2023-06-04T19:23:15.194Z,21.62
2023-06-04T19:25:48.714Z,21.21
2023-06-04T19:28:36.142Z,21.07
2023-06-04T19:31:11.252Z,20.80
2023-06-04T19:33:58.169Z,20.94
2023-06-04T19:36:38.133Z,21.29
2023-06-04T19:39:18.233Z,20.34
2023-06-04T19:41:58.246Z,20.59
2023-06-04T19:44:39.247Z,20.70
2023-06-04T19:47:21.170Z,20.88
2023-06-04T19:50:01.273Z,20.92
2023-06-04T19:52:41.182Z,20.86
2023-06-04T19:55:21.584Z,20.36
2023-06-04T19:58:03.215Z,20.31
2023-06-04T20:00:43.989Z,20.34
2023-06-04T20:03:26.271Z,20.45
2023-06-04T20:06:20.160Z,20.20
2023-06-04T20:09:15.164Z,20.02
2023-06-04T20:12:09.190Z,20.04
2023-06-04T20:14:57.125Z,19.82
2023-06-04T20:17:37.263Z,19.89
2023-06-04T20:20:35.149Z,20.17
2023-06-04T20:23:22.144Z,19.74
2023-06-04T20:26:06.240Z,19.71
2023-06-04T20:29:02.116Z,19.44
2023-06-04T20:31:49.158Z,19.25
2023-06-04T20:34:24.311Z,19.45
2023-06-04T20:37:12.129Z,19.79
2023-06-04T20:39:48.748Z,19.55
2023-06-04T20:42:35.138Z,19.30
2023-06-04T20:45:08.256Z,19.18
2023-06-04T20:47:55.205Z,19.64
2023-06-04T20:50:29.299Z,19.20
2023-06-04T20:53:18.203Z,19.12
2023-06-04T20:55:51.345Z,19.29
2023-06-04T20:58:38.307Z,18.78
2023-06-04T21:01:12.245Z,19.38
2023-06-04T21:04:01.293Z,19.26
2023-06-04T21:06:42.019Z,19.03
2023-06-04T21:09:24.120Z,18.77
2023-06-04T21:12:11.223Z,19.15
2023-06-04T21:14:46.842Z,18.64
2023-06-04T21:17:37.222Z,19.08
2023-06-04T21:20:11.464Z,19.04
2023-06-04T21:22:58.123Z,18.56
2023-06-04T21:25:33.906Z,18.42
2023-06-04T21:28:20.108Z,18.36
2023-06-04T21:30:53.805Z,18.74
2023-06-04T21:33:40.117Z,18.04
2023-06-04T21:36:14.961Z,18.56
2023-06-04T21:39:02.137Z,18.14
2023-06-04T21:41:37.098Z,18.56
2023-06-04T21:44:24.165Z,18.36
2023-06-04T21:46:58.692Z,18.04
2023-06-04T21:49:45.172Z,18.10
2023-06-04T21:52:25.499Z,18.12
2023-06-04T21:55:13.372Z,18.54
2023-06-04T21:57:49.376Z,18.40
2023-06-04T22:00:56.866Z,18.21
2023-06-04T22:03:39.998Z,18.03
2023-06-04T22:06:47.230Z,18.16
2023-06-04T22:09:46.178Z,18.15
2023-06-04T22:12:36.173Z,17.67
2023-06-04T22:15:15.239Z,17.59
2023-06-04T22:18:02.187Z,17.03
2023-06-04T22:20:36.246Z,17.89
2023-06-04T22:23:24.189Z,17.39
2023-06-04T22:26:10.003Z,17.86
2023-06-04T22:29:09.139Z,17.34
2023-06-04T22:32:04.092Z,17.38
2023-06-04T22:34:51.098Z,17.73
2023-06-04T22:37:25.405Z,17.53
2023-06-04T22:40:14.162Z,17.27
2023-06-04T22:42:51.269Z,17.35
2023-06-04T22:45:38.154Z,17.38
2023-06-04T22:48:14.238Z,17.62
2023-06-04T22:51:05.178Z,17.69
2023-06-04T22:53:46.159Z,17.04
2023-06-04T22:56:40.094Z,17.64
2023-06-04T22:59:27.129Z,17.66
2023-06-04T23:02:01.400Z,17.27
2023-06-04T23:04:51.127Z,17.33
2023-06-04T23:07:38.130Z,17.59
2023-06-04T23:10:18.165Z,17.34
2023-06-04T23:12:58.340Z,17.85
2023-06-04T23:15:40.175Z,17.44
2023-06-04T23:18:20.186Z,17.95
2023-06-04T23:21:02.180Z,18.05
2023-06-04T23:23:43.248Z,17.62
2023-06-04T23:26:30.102Z,17.73
2023-06-04T23:29:03.396Z,17.61
2023-06-04T23:31:50.220Z,18.06
2023-06-04T23:34:26.232Z,18.03
2023-06-04T23:37:15.132Z,17.57
2023-06-04T23:39:56.246Z,17.50
2023-06-04T23:42:50.084Z,17.99
2023-06-04T23:45:39.192Z,17.92
2023-06-04T23:48:13.380Z,17.39
2023-06-04T23:51:00.174Z,17.61
2023-06-04T23:53:35.295Z,17.33
2023-06-04T23:56:27.124Z,17.05
2023-06-04T23:59:01.378Z,17.37
